createdAt,value
2023-05-14T00:00:32.983Z,95.54
2023-05-14T00:01:32.950Z,95.79
2023-05-14T00:02:33.121Z,95.75
2023-05-14T00:03:33.037Z,96.00
2023-05-14T00:04:33.349Z,96.10
2023-05-14T00:05:32.961Z,95.49
2023-05-14T00:06:32.939Z,95.86
2023-05-14T00:07:32.917Z,95.49
2023-05-14T00:08:32.946Z,95.90
2023-05-14T00:09:32.952Z,95.90
2023-05-14T00:10:32.984Z,95.65
2023-05-14T00:11:32.972Z,95.44
2023-05-14T00:12:32.867Z,95.59
2023-05-14T00:13:32.952Z,95.59
2023-05-14T00:14:32.889Z,95.34
2023-05-14T00:15:34.485Z,95.18
2023-05-14T00:16:33.949Z,95.24
2023-05-14T00:17:32.931Z,94.89
2023-05-14T00:18:32.911Z,94.27
2023-05-14T00:19:32.820Z,94.37
2023-05-14T00:20:32.766Z,94.54
2023-05-14T00:21:32.768Z,93.41
2023-05-14T00:22:32.759Z,93.82
2023-05-14T01:44:02.309Z,99.99
2023-05-14T01:45:01.844Z,99.99
2023-05-14T01:46:01.950Z,99.99
2023-05-14T01:47:01.847Z,99.99
2023-05-14T01:48:38.485Z,99.37
2023-05-14T01:49:02.980Z,99.37
2023-05-14T01:50:03.015Z,98.65
2023-05-14T01:51:03.278Z,98.85
2023-05-14T01:52:03.068Z,98.13
2023-05-14T01:53:03.030Z,97.67
2023-05-14T01:54:03.044Z,97.78
2023-05-14T01:55:13.616Z,97.37
2023-05-14T01:56:02.964Z,96.65
2023-05-14T01:57:03.045Z,96.85
2023-05-14T01:58:02.951Z,96.39
2023-05-14T01:59:02.919Z,96.84
2023-05-14T02:00:02.910Z,97.72
2023-05-14T02:01:02.869Z,97.87
2023-05-14T02:02:02.795Z,98.33
2023-05-14T02:03:02.953Z,98.84
2023-05-14T02:04:02.861Z,99.00
2023-05-14T02:05:04.285Z,99.62
2023-05-14T02:06:02.806Z,99.31
2023-05-14T02:07:02.838Z,99.51
2023-05-14T02:08:02.845Z,99.51
2023-05-14T02:09:02.905Z,99.37
2023-05-14T02:10:02.892Z,98.44
2023-05-14T02:11:02.879Z,98.75
2023-05-14T02:12:02.909Z,98.65
2023-05-14T02:13:02.702Z,98.54
2023-05-14T02:14:02.806Z,98.65
2023-05-14T02:15:02.940Z,98.33
2023-05-14T02:16:02.900Z,98.65
2023-05-14T02:17:02.872Z,98.13
2023-05-14T02:18:03.092Z,98.44
2023-05-14T02:19:02.830Z,98.65
2023-05-14T02:20:02.760Z,97.82
2023-05-14T02:21:02.840Z,97.82
2023-05-14T02:22:02.794Z,98.24
2023-05-14T02:23:02.756Z,98.13
2023-05-14T02:24:02.734Z,98.24
2023-05-14T02:25:02.764Z,98.24
2023-05-14T02:26:02.773Z,97.10
2023-05-14T02:27:02.759Z,97.97
2023-05-14T02:28:02.685Z,97.87
2023-05-14T02:29:03.020Z,97.77
2023-05-14T02:30:02.650Z,97.92
2023-05-14T02:31:02.628Z,97.72
2023-05-14T02:32:02.818Z,97.52
2023-05-14T02:33:02.725Z,97.52
2023-05-14T02:34:02.711Z,97.25
2023-05-14T02:35:02.615Z,97.45
2023-05-14T02:36:02.750Z,97.77
2023-05-14T02:37:02.725Z,97.77
2023-05-14T02:38:02.740Z,97.52
2023-05-14T02:39:02.707Z,97.56
2023-05-14T02:40:02.693Z,97.25
2023-05-14T02:41:02.875Z,97.61
2023-05-14T02:42:03.705Z,97.30
2023-05-14T02:43:02.632Z,97.50
2023-05-14T02:44:02.598Z,98.33
2023-05-14T02:45:02.648Z,98.47
2023-05-14T02:46:02.619Z,98.99
2023-05-14T02:47:02.774Z,98.74
2023-05-14T02:48:03.848Z,98.47
2023-05-14T02:49:02.558Z,98.58
2023-05-14T02:50:02.532Z,98.88
2023-05-14T02:51:02.475Z,99.40
2023-05-14T02:52:02.489Z,99.30
2023-05-14T02:53:02.452Z,99.81
2023-05-14T02:54:02.551Z,99.81
2023-05-14T02:55:02.574Z,99.99
2023-05-14T02:56:03.544Z,99.99
2023-05-14T02:57:02.524Z,99.99
2023-05-14T02:58:02.790Z,99.99
2023-05-14T02:59:02.616Z,99.30
2023-05-14T03:00:02.490Z,99.60
2023-05-14T03:01:02.570Z,99.66
2023-05-14T03:02:02.527Z,99.05
2023-05-14T03:03:02.508Z,98.63
2023-05-14T03:04:02.444Z,98.53
2023-05-14T03:05:02.527Z,98.53
2023-05-14T03:06:02.470Z,98.74
2023-05-14T03:07:02.474Z,98.47
2023-05-14T03:08:02.455Z,98.99
2023-05-14T03:09:02.697Z,99.91
2023-05-14T03:10:02.494Z,99.19
2023-05-14T03:11:02.448Z,99.46
2023-05-14T03:12:02.434Z,99.56
2023-05-14T03:13:02.310Z,99.56
2023-05-14T03:14:02.405Z,98.94
2023-05-14T03:15:02.393Z,98.94
2023-05-14T03:16:02.475Z,98.53
2023-05-14T03:17:02.417Z,98.94
2023-05-14T03:18:02.459Z,98.74
2023-05-14T03:19:02.325Z,99.09
2023-05-14T03:20:02.311Z,99.71
2023-05-14T03:21:02.288Z,99.60
2023-05-14T03:22:02.291Z,99.91
2023-05-14T03:23:02.260Z,99.35
2023-05-14T03:24:02.288Z,99.71
2023-05-14T03:25:02.203Z,98.74
2023-05-14T03:26:02.279Z,98.74
2023-05-14T03:27:02.311Z,98.47
2023-05-14T03:28:02.231Z,98.79
2023-05-14T03:29:02.268Z,99.09
2023-05-14T03:30:02.214Z,98.88
2023-05-14T03:31:02.299Z,98.43
2023-05-14T03:32:02.255Z,98.33
2023-05-14T03:33:02.339Z,98.12
2023-05-14T03:34:02.312Z,97.77
2023-05-14T03:35:02.258Z,97.77
2023-05-14T03:36:02.243Z,97.25
2023-05-14T03:37:02.258Z,96.94
2023-05-14T03:38:02.296Z,97.25
2023-05-14T03:39:02.565Z,97.00
2023-05-14T03:40:02.239Z,97.10
2023-05-14T03:41:02.265Z,96.59
2023-05-14T03:42:02.276Z,96.85
2023-05-14T03:43:02.306Z,96.55
2023-05-14T03:44:03.208Z,96.23
2023-05-14T03:45:02.282Z,96.08
2023-05-14T03:46:02.171Z,95.97
2023-05-14T03:47:02.284Z,96.18
2023-05-14T03:48:02.328Z,97.25
2023-05-14T03:49:02.707Z,97.77
2023-05-14T03:50:02.383Z,98.18
2023-05-14T03:51:02.114Z,98.18
2023-05-14T03:52:02.076Z,98.13
2023-05-14T03:53:02.049Z,97.82
2023-05-14T03:54:02.117Z,97.72
2023-05-14T03:55:02.032Z,97.31
2023-05-14T03:56:02.353Z,97.31
2023-05-14T03:57:02.014Z,97.77
2023-05-14T03:58:02.035Z,98.38
2023-05-14T03:59:02.184Z,98.28
2023-05-14T04:00:02.082Z,98.18
2023-05-14T04:01:02.117Z,98.24
2023-05-14T04:02:02.100Z,98.33
2023-05-14T04:03:02.155Z,98.24
2023-05-14T04:04:02.156Z,98.50
2023-05-14T04:05:02.125Z,98.19
2023-05-14T04:06:02.161Z,97.99
2023-05-14T04:07:02.059Z,98.24
2023-05-14T04:08:02.053Z,98.19
2023-05-14T04:09:02.307Z,98.19
2023-05-14T04:10:04.326Z,97.88
2023-05-14T04:11:02.981Z,97.78
2023-05-14T04:12:01.991Z,97.88
2023-05-14T04:13:01.906Z,98.24
2023-05-14T04:14:01.989Z,98.08
2023-05-14T04:15:02.002Z,98.08
2023-05-14T04:16:02.016Z,98.70
2023-05-14T04:17:01.999Z,98.75
2023-05-14T04:18:02.053Z,98.65
2023-05-14T04:19:02.015Z,98.60
2023-05-14T04:20:01.945Z,98.39
2023-05-14T04:21:02.206Z,98.50
2023-05-14T04:22:01.922Z,98.50
2023-05-14T04:23:01.916Z,98.29
2023-05-14T04:24:01.912Z,98.08
2023-05-14T04:25:01.959Z,98.08
2023-05-14T04:26:01.883Z,97.99
2023-05-14T04:27:01.953Z,98.19
2023-05-14T04:28:01.908Z,98.08
2023-05-14T04:29:01.924Z,98.60
2023-05-14T04:30:01.864Z,98.60
2023-05-14T04:31:01.967Z,98.80
2023-05-14T04:32:02.311Z,98.70
2023-05-14T04:33:01.949Z,98.80
2023-05-14T04:34:01.759Z,98.50
2023-05-14T04:35:01.808Z,98.80
2023-05-14T04:36:01.718Z,98.14
2023-05-14T04:37:01.735Z,98.14
2023-05-14T04:38:01.806Z,97.99
2023-05-14T04:39:01.751Z,98.08
2023-05-14T04:40:01.699Z,97.63
2023-05-14T04:41:01.720Z,97.63
2023-05-14T04:42:01.692Z,97.83
2023-05-14T04:43:01.737Z,97.63
2023-05-14T04:44:01.766Z,97.48
2023-05-14T04:45:25.874Z,97.28
2023-05-14T04:46:01.772Z,97.28
2023-05-14T04:47:01.775Z,96.87
2023-05-14T04:48:01.855Z,96.62
2023-05-14T04:49:01.848Z,96.41
2023-05-14T04:50:01.765Z,95.79
2023-05-14T04:51:02.064Z,95.59
2023-05-14T04:52:01.767Z,96.10
2023-05-14T04:53:02.840Z,95.69
2023-05-14T04:54:02.029Z,95.79
2023-05-14T04:55:01.727Z,95.07
2023-05-14T04:56:01.757Z,95.49
2023-05-14T04:57:02.436Z,94.87
2023-05-14T04:58:01.688Z,95.12
2023-05-14T04:59:01.709Z,95.02
2023-05-14T05:00:01.731Z,96.00
2023-05-14T05:01:01.677Z,95.86
2023-05-14T05:02:01.693Z,95.39
2023-05-14T05:03:01.797Z,94.73
2023-05-14T05:04:01.652Z,95.14
2023-05-14T05:05:01.735Z,95.44
2023-05-14T05:06:01.662Z,95.54
2023-05-14T05:07:01.572Z,95.75
2023-05-14T05:08:01.801Z,94.83
2023-05-14T05:09:02.270Z,95.95
2023-05-14T05:10:01.625Z,95.28
2023-05-14T05:11:01.603Z,94.93
2023-05-14T05:12:01.603Z,95.44
2023-05-14T05:13:01.501Z,95.90
2023-05-14T05:14:01.509Z,95.75
2023-05-14T05:15:01.455Z,95.86
2023-05-14T05:16:01.537Z,96.37
2023-05-14T05:17:01.432Z,96.47
2023-05-14T05:18:01.554Z,96.88
2023-05-14T05:19:01.563Z,97.19
2023-05-14T05:20:01.537Z,97.14
2023-05-14T05:21:01.523Z,97.14
2023-05-14T05:22:01.529Z,97.14
2023-05-14T05:23:01.472Z,96.63
2023-05-14T05:24:01.482Z,96.83
2023-05-14T05:25:01.474Z,96.94
2023-05-14T05:26:01.732Z,96.83
2023-05-14T05:27:01.477Z,96.63
2023-05-14T05:28:01.445Z,96.32
2023-05-14T05:29:01.476Z,96.38
2023-05-14T05:30:02.495Z,96.79
2023-05-14T05:31:01.463Z,95.87
2023-05-14T05:32:01.416Z,95.87
2023-05-14T05:33:01.539Z,95.46
2023-05-14T05:34:01.500Z,95.05
2023-05-14T05:35:01.438Z,95.25
2023-05-14T05:36:01.458Z,95.92
2023-05-14T05:37:02.653Z,95.51
2023-05-14T05:38:01.884Z,95.72
2023-05-14T05:39:02.364Z,95.41
2023-05-14T05:40:01.400Z,95.21
2023-05-14T05:41:01.344Z,94.80
2023-05-14T05:42:01.373Z,95.66
2023-05-14T05:43:01.247Z,95.51
2023-05-14T05:44:01.299Z,95.82
2023-05-14T05:45:01.275Z,95.66
2023-05-14T05:46:01.304Z,95.46
2023-05-14T05:47:01.408Z,95.66
2023-05-14T05:48:01.304Z,94.95
2023-05-14T05:49:02.290Z,95.87
2023-05-14T05:50:01.205Z,95.76
2023-05-14T05:51:01.520Z,96.38
2023-05-14T05:52:01.313Z,95.87
2023-05-14T05:53:01.263Z,95.82
2023-05-14T05:54:01.257Z,95.72
2023-05-14T05:55:17.473Z,95.72
2023-05-14T05:56:01.147Z,96.03
2023-05-14T05:57:01.351Z,95.72
2023-05-14T05:58:01.321Z,95.41
2023-05-14T05:59:01.275Z,95.88
2023-05-14T06:00:01.399Z,95.78
2023-05-14T06:01:01.288Z,95.57
2023-05-14T06:02:02.286Z,95.17
2023-05-14T06:03:01.504Z,95.41
2023-05-14T06:04:01.254Z,94.85
2023-05-14T06:05:01.224Z,95.47
2023-05-14T06:06:01.252Z,94.85
2023-05-14T06:07:01.165Z,95.17
2023-05-14T06:08:01.157Z,95.06
2023-05-14T06:09:01.171Z,95.17
2023-05-14T06:10:01.175Z,95.82
2023-05-14T06:11:01.181Z,95.37
2023-05-14T06:12:01.269Z,95.37
2023-05-14T06:13:01.159Z,94.96
2023-05-14T06:14:01.188Z,95.02
2023-05-14T06:15:01.421Z,94.92
2023-05-14T06:16:01.323Z,94.40
2023-05-14T06:17:01.212Z,94.15
2023-05-14T06:18:01.066Z,94.20
2023-05-14T06:19:01.093Z,94.97
2023-05-14T06:20:01.026Z,94.36
2023-05-14T06:21:00.994Z,94.15
2023-05-14T06:22:01.046Z,94.67
2023-05-14T06:23:01.058Z,94.51
2023-05-14T06:24:00.988Z,95.28
2023-05-14T06:25:01.049Z,94.56
2023-05-14T06:26:00.977Z,94.26
2023-05-14T06:27:00.962Z,93.89
2023-05-14T06:28:02.008Z,94.77
2023-05-14T06:29:00.973Z,94.36
2023-05-14T06:30:01.002Z,93.85
2023-05-14T06:31:01.037Z,93.95
2023-05-14T06:32:01.344Z,94.26
2023-05-14T06:33:01.081Z,94.36
2023-05-14T06:34:00.974Z,94.42
2023-05-14T06:35:00.995Z,94.21
2023-05-14T06:36:02.011Z,93.70
2023-05-14T06:37:00.992Z,93.40
2023-05-14T06:38:01.122Z,93.40
2023-05-14T06:39:00.944Z,93.66
2023-05-14T06:40:00.954Z,92.94
2023-05-14T06:41:00.978Z,92.23
2023-05-14T06:42:00.906Z,91.37
2023-05-14T06:43:01.391Z,91.37
2023-05-14T06:44:00.850Z,91.57
2023-05-14T06:45:00.849Z,90.35
2023-05-14T06:46:00.818Z,91.47
2023-05-14T06:47:01.446Z,92.08
2023-05-14T06:48:00.998Z,91.98
2023-05-14T06:49:01.240Z,92.29
2023-05-14T06:50:00.889Z,92.14
2023-05-14T06:51:00.820Z,91.12
2023-05-14T06:52:00.908Z,90.88
2023-05-14T06:53:00.864Z,90.77
2023-05-14T06:54:00.889Z,90.47
2023-05-14T06:55:00.829Z,90.57
2023-05-14T06:56:00.891Z,90.98
2023-05-14T06:57:00.826Z,90.77
2023-05-14T06:58:00.791Z,91.33
2023-05-14T06:59:00.798Z,91.02
2023-05-14T07:00:03.283Z,91.39
2023-05-14T07:01:01.858Z,90.98
2023-05-14T07:02:00.843Z,89.86
2023-05-14T07:03:00.739Z,90.36
2023-05-14T07:04:01.994Z,88.69
2023-05-14T07:05:00.807Z,88.90
2023-05-14T07:06:00.816Z,89.92
2023-05-14T07:07:00.777Z,90.53
2023-05-14T07:08:00.846Z,89.92
2023-05-14T07:09:00.773Z,90.01
2023-05-14T07:10:00.709Z,89.06
2023-05-14T07:11:00.732Z,88.45
2023-05-14T07:12:00.663Z,88.45
2023-05-14T07:13:00.635Z,88.45
2023-05-14T07:14:00.608Z,88.40
2023-05-14T07:15:00.599Z,88.31
2023-05-14T07:16:00.683Z,88.26
2023-05-14T07:17:00.655Z,88.77
2023-05-14T07:18:00.650Z,87.92
2023-05-14T07:19:00.670Z,87.00
2023-05-14T07:20:00.603Z,87.10
2023-05-14T07:21:00.591Z,85.68
2023-05-14T07:22:00.636Z,85.64
2023-05-14T07:23:00.554Z,85.84
2023-05-14T07:24:00.541Z,85.94
2023-05-14T07:25:00.652Z,84.78
2023-05-14T07:26:01.609Z,84.48
2023-05-14T07:27:00.743Z,84.99
2023-05-14T07:28:00.605Z,85.09
2023-05-14T07:29:00.654Z,84.64
2023-05-14T07:30:00.824Z,84.95
2023-05-14T07:31:00.704Z,83.62
2023-05-14T07:32:00.608Z,83.32
2023-05-14T07:33:00.750Z,83.93
2023-05-14T07:34:00.590Z,84.03
2023-05-14T07:35:00.658Z,84.54
2023-05-14T07:36:00.537Z,83.93
2023-05-14T07:37:00.526Z,84.40
2023-05-14T07:38:00.603Z,83.69
2023-05-14T07:39:00.547Z,84.05
2023-05-14T07:40:00.491Z,82.67
2023-05-14T07:41:00.736Z,82.73
2023-05-14T07:42:00.465Z,82.53
2023-05-14T07:43:00.532Z,82.53
2023-05-14T07:44:00.562Z,82.09
2023-05-14T07:45:00.540Z,81.58
2023-05-14T07:46:00.499Z,81.99
2023-05-14T07:47:00.715Z,82.66
2023-05-14T07:48:00.766Z,82.29
2023-05-14T07:49:00.491Z,83.47
2023-05-14T07:50:00.677Z,82.25
2023-05-14T07:51:00.464Z,83.53
2023-05-14T07:52:00.763Z,80.35
2023-05-14T07:53:00.385Z,80.25
2023-05-14T07:54:00.339Z,80.15
2023-05-14T07:55:00.405Z,80.25
2023-05-14T07:56:00.333Z,80.21
2023-05-14T07:57:00.376Z,78.89
2023-05-14T07:58:00.346Z,80.35
2023-05-14T07:59:00.420Z,80.21
2023-05-14T08:00:00.702Z,81.02
2023-05-14T08:01:00.361Z,82.24
2023-05-14T08:02:00.275Z,81.99
2023-05-14T08:03:00.531Z,80.13
2023-05-14T08:04:00.471Z,78.78
2023-05-14T08:05:00.455Z,78.99
2023-05-14T08:06:00.311Z,77.64
2023-05-14T08:07:00.358Z,77.87
2023-05-14T08:08:00.406Z,77.26
2023-05-14T08:09:00.657Z,77.26
2023-05-14T08:10:00.314Z,78.38
2023-05-14T08:11:00.434Z,75.45
2023-05-14T08:12:00.313Z,75.14
2023-05-14T08:13:00.307Z,75.34
2023-05-14T08:14:00.301Z,75.71
2023-05-14T08:15:00.490Z,74.13
2023-05-14T08:16:00.283Z,73.58
2023-05-14T08:17:00.331Z,72.38
2023-05-14T08:18:00.324Z,71.73
2023-05-14T08:19:00.315Z,72.71
2023-05-14T08:20:00.504Z,71.67
2023-05-14T08:21:01.650Z,71.33
2023-05-14T08:22:18.534Z,72.48
2023-05-14T08:23:00.163Z,74.43
2023-05-14T08:24:00.339Z,74.40
2023-05-14T08:25:00.248Z,74.46
2023-05-14T08:26:00.251Z,73.96
2023-05-14T08:27:00.156Z,73.42
2023-05-14T08:28:00.195Z,73.28
2023-05-14T08:29:00.193Z,72.27
2023-05-14T08:30:17.084Z,69.82
2023-05-14T08:31:01.169Z,72.54
2023-05-14T08:32:05.823Z,73.58
2023-05-14T08:33:01.233Z,73.69
2023-05-14T08:34:00.507Z,74.76
2023-05-14T08:35:00.156Z,72.71
2023-05-14T08:36:00.171Z,72.27
2023-05-14T08:37:00.066Z,69.42
2023-05-14T08:38:00.010Z,68.01
2023-05-14T08:39:00.065Z,67.30
2023-05-14T08:40:00.066Z,67.27
2023-05-14T08:41:00.177Z,67.84
2023-05-14T08:41:59.989Z,68.04
2023-05-14T08:43:00.128Z,67.64
2023-05-14T08:44:00.152Z,68.15
2023-05-14T08:45:00.155Z,66.80
2023-05-14T08:46:00.416Z,66.23
2023-05-14T08:47:00.161Z,70.09
2023-05-14T08:48:00.243Z,68.04
2023-05-14T08:49:00.116Z,68.04
2023-05-14T08:50:00.092Z,66.20
2023-05-14T08:50:59.993Z,65.16
2023-05-14T08:52:00.011Z,65.13
2023-05-14T08:52:59.969Z,64.43
2023-05-14T08:53:59.937Z,65.64
2023-05-14T08:55:00.080Z,65.23
2023-05-14T08:55:59.964Z,66.60
2023-05-14T08:57:00.245Z,67.37
2023-05-14T08:57:59.973Z,69.09
2023-05-14T08:59:00.030Z,70.06
2023-05-14T09:00:00.004Z,69.49
2023-05-14T09:01:00.172Z,70.16
2023-05-14T09:04:30.221Z,65.44
2023-05-14T09:05:31.843Z,63.90
2023-05-14T09:06:31.467Z,63.70
2023-05-14T09:07:31.577Z,65.77
2023-05-14T09:08:31.686Z,64.34
2023-05-14T09:09:31.499Z,63.31
2023-05-14T09:10:31.378Z,61.19
2023-05-14T09:11:31.407Z,61.22
2023-05-14T09:12:31.327Z,60.69
2023-05-14T09:13:31.282Z,61.30
2023-05-14T09:14:31.248Z,61.79
2023-05-14T09:15:31.319Z,62.66
2023-05-14T09:16:31.318Z,64.14
2023-05-14T09:17:31.484Z,63.93
2023-05-14T09:18:31.393Z,65.94
2023-05-14T09:19:37.154Z,65.84
2023-05-14T09:20:31.305Z,63.84
2023-05-14T09:21:33.539Z,61.80
2023-05-14T09:22:33.489Z,61.90
2023-05-14T09:23:31.289Z,61.87
2023-05-14T09:24:31.213Z,62.97
2023-05-14T09:25:31.345Z,61.67
2023-05-14T09:26:32.958Z,60.94
2023-05-14T09:27:31.556Z,59.33
2023-05-14T09:28:31.291Z,61.14
2023-05-14T09:29:31.472Z,60.64
2023-05-14T09:31:04.557Z,60.86
2023-05-14T09:31:31.299Z,61.77
2023-05-14T09:32:31.422Z,63.87
2023-05-14T09:33:31.316Z,63.04
2023-05-14T09:34:31.326Z,61.14
2023-05-14T09:35:31.302Z,60.41
2023-05-14T09:36:31.325Z,59.50
2023-05-14T09:37:31.194Z,58.87
2023-05-14T09:38:31.262Z,58.20
2023-05-14T09:39:31.262Z,58.48
2023-05-14T09:40:31.130Z,61.01
2023-05-14T09:41:31.126Z,59.20
2023-05-14T09:42:31.065Z,60.41
2023-05-14T09:43:31.069Z,60.68
2023-05-14T09:44:31.146Z,58.61
2023-05-14T09:45:31.046Z,58.50
2023-05-14T09:46:31.067Z,60.48
2023-05-14T09:47:31.159Z,61.58
2023-05-14T09:48:31.073Z,62.11
2023-05-14T09:49:31.114Z,63.04
2023-05-14T09:50:31.062Z,61.21
2023-05-14T09:51:31.211Z,61.01
2023-05-14T09:52:31.269Z,61.41
2023-05-14T09:53:31.209Z,58.91
2023-05-14T09:54:31.353Z,57.78
2023-05-14T09:55:31.086Z,58.68
2023-05-14T09:56:31.168Z,57.90
2023-05-14T09:57:31.448Z,59.11
2023-05-14T09:58:32.991Z,60.51
2023-05-14T09:59:31.067Z,63.01
2023-05-14T10:00:31.078Z,61.58
2023-05-14T10:01:31.043Z,58.87
2023-05-14T10:02:31.456Z,60.58
2023-05-14T10:03:31.030Z,60.48
2023-05-14T10:04:31.338Z,60.08
2023-05-14T10:05:31.634Z,60.45
2023-05-14T10:06:31.152Z,59.75
2023-05-14T10:07:31.045Z,60.75
2023-05-14T10:08:31.306Z,60.85
2023-05-14T10:09:31.088Z,58.35
2023-05-14T10:10:30.962Z,57.05
2023-05-14T10:11:31.624Z,59.55
2023-05-14T10:12:31.040Z,58.15
2023-05-14T10:13:30.998Z,59.28
2023-05-14T10:14:30.966Z,59.48
2023-05-14T10:15:30.940Z,55.77
2023-05-14T10:16:32.306Z,56.48
2023-05-14T10:17:31.032Z,56.35
2023-05-14T10:18:31.163Z,56.05
2023-05-14T10:19:31.269Z,58.62
2023-05-14T10:20:30.866Z,58.65
2023-05-14T10:21:30.914Z,60.65
2023-05-14T10:22:31.104Z,56.74
2023-05-14T10:23:30.885Z,56.74
2023-05-14T10:24:30.920Z,56.92
2023-05-14T10:25:30.891Z,55.42
2023-05-14T10:26:30.945Z,55.36
2023-05-14T10:27:30.891Z,57.24
2023-05-14T10:28:30.995Z,56.64
2023-05-14T10:29:30.824Z,56.44
2023-05-14T10:30:30.947Z,55.11
2023-05-14T10:31:31.144Z,55.32
2023-05-14T10:32:31.359Z,54.94
2023-05-14T10:33:31.262Z,56.57
2023-05-14T10:34:30.862Z,56.37
2023-05-14T10:35:31.342Z,57.35
2023-05-14T10:36:35.364Z,59.15
2023-05-14T10:37:31.353Z,57.95
2023-05-14T10:38:31.127Z,55.19
2023-05-14T10:39:30.754Z,55.89
2023-05-14T10:40:30.680Z,57.09
2023-05-14T10:41:30.697Z,54.27
2023-05-14T10:42:30.815Z,53.17
2023-05-14T10:43:31.832Z,53.67
2023-05-14T10:44:30.914Z,53.89
2023-05-14T10:45:30.732Z,54.29
2023-05-14T10:46:30.825Z,55.17
2023-05-14T10:47:35.941Z,55.47
2023-05-14T10:48:31.701Z,53.77
2023-05-14T10:49:42.999Z,53.17
2023-05-14T10:50:32.840Z,55.40
2023-05-14T10:51:32.396Z,58.42
2023-05-14T10:52:31.001Z,56.72
2023-05-14T10:53:31.149Z,56.32
2023-05-14T10:54:30.781Z,56.99
2023-05-14T10:55:31.013Z,56.49
2023-05-14T10:56:30.750Z,56.42
2023-05-14T10:57:30.855Z,56.62
2023-05-14T10:58:30.658Z,56.62
2023-05-14T10:59:30.651Z,54.82
2023-05-14T11:00:30.737Z,54.02
2023-05-14T11:01:30.824Z,54.10
2023-05-14T11:02:30.728Z,51.89
2023-05-14T11:03:30.981Z,52.29
2023-05-14T11:04:30.952Z,52.87
2023-05-14T11:05:31.111Z,54.17
2023-05-14T11:06:30.586Z,55.07
2023-05-14T11:07:30.616Z,53.84
2023-05-14T11:08:30.687Z,53.54
2023-05-14T11:09:30.971Z,53.47
2023-05-14T11:10:31.241Z,52.89
2023-05-14T11:11:30.877Z,53.07
2023-05-14T11:12:30.754Z,53.27
2023-05-14T11:13:30.507Z,53.19
2023-05-14T11:14:30.607Z,53.19
2023-05-14T11:15:30.631Z,51.09
2023-05-14T11:16:30.822Z,52.19
2023-05-14T11:17:30.858Z,51.20
2023-05-14T11:18:30.677Z,53.47
2023-05-14T11:19:30.813Z,52.97
2023-05-14T11:20:30.876Z,51.64
2023-05-14T11:21:30.775Z,50.57
2023-05-14T11:22:30.940Z,50.67
2023-05-14T11:23:30.965Z,51.37
2023-05-14T11:24:30.854Z,51.77
2023-05-14T11:25:31.371Z,51.75
2023-05-14T11:26:30.922Z,50.54
2023-05-14T11:27:31.088Z,51.15
2023-05-14T11:28:31.098Z,49.82
2023-05-14T11:29:31.039Z,49.32
2023-05-14T11:30:31.623Z,48.80
2023-05-14T11:31:30.676Z,48.38
2023-05-14T11:32:31.111Z,48.97
2023-05-14T11:33:30.872Z,47.96
2023-05-14T11:34:30.873Z,46.46
2023-05-14T11:35:30.355Z,48.25
2023-05-14T11:36:30.849Z,48.23
2023-05-14T11:37:31.141Z,47.53
2023-05-14T11:38:30.996Z,47.11
2023-05-14T11:39:31.747Z,46.01
2023-05-14T11:40:31.115Z,46.59
2023-05-14T11:41:30.952Z,45.62
2023-05-14T11:42:30.352Z,46.00
2023-05-14T11:43:32.076Z,45.54
2023-05-14T11:44:30.829Z,47.02
2023-05-14T11:45:30.832Z,47.24
2023-05-14T11:46:30.899Z,48.48
2023-05-14T11:47:31.023Z,48.46
2023-05-14T11:48:31.053Z,49.03
2023-05-14T11:49:31.011Z,51.27
2023-05-14T11:50:31.789Z,51.45
2023-05-14T11:51:30.932Z,48.83
2023-05-14T11:52:31.157Z,48.63
2023-05-14T11:53:30.960Z,48.63
2023-05-14T11:54:30.540Z,46.72
2023-05-14T11:55:30.245Z,46.51
2023-05-14T11:56:30.966Z,48.01
2023-05-14T11:57:30.760Z,48.31
2023-05-14T11:58:30.631Z,47.11
2023-05-14T11:59:30.345Z,46.91
2023-05-14T12:00:30.499Z,46.22
2023-05-14T12:01:30.314Z,46.99
2023-05-14T12:02:30.374Z,48.28
2023-05-14T12:03:30.618Z,46.30
2023-05-14T12:04:30.640Z,46.30
2023-05-14T12:05:30.525Z,46.59
2023-05-14T12:06:30.435Z,46.09
2023-05-14T12:07:30.558Z,47.71
2023-05-14T12:08:30.595Z,45.82
2023-05-14T12:09:30.505Z,47.02
2023-05-14T12:10:30.573Z,46.30
2023-05-14T12:11:30.536Z,46.89
2023-05-14T12:12:30.548Z,47.27
2023-05-14T12:13:30.400Z,47.25
2023-05-14T12:14:30.601Z,45.43
2023-05-14T12:15:30.606Z,44.12
2023-05-14T12:16:30.696Z,45.41
2023-05-14T12:17:30.065Z,48.46
2023-05-14T12:18:30.262Z,48.71
2023-05-14T12:19:30.481Z,48.38
2023-05-14T12:20:30.225Z,48.32
2023-05-14T12:21:30.417Z,54.02
2023-05-14T12:22:30.128Z,51.54
2023-05-14T12:23:30.230Z,50.22
2023-05-14T12:24:30.120Z,51.10
2023-05-14T12:25:30.496Z,46.33
2023-05-14T12:26:30.097Z,51.50
2023-05-14T12:27:30.255Z,53.52
2023-05-14T12:28:30.243Z,50.40
2023-05-14T12:29:30.180Z,53.22
2023-05-14T12:30:30.646Z,52.09
2023-05-14T12:31:30.220Z,51.20
2023-05-14T12:32:30.053Z,48.60
2023-05-14T12:33:30.422Z,51.94
2023-05-14T12:34:30.172Z,54.32
2023-05-14T12:35:30.159Z,52.89
2023-05-14T12:36:30.341Z,51.79
2023-05-14T12:37:31.273Z,51.89
2023-05-14T12:38:31.689Z,51.47
2023-05-14T12:39:30.634Z,51.27
2023-05-14T12:40:30.168Z,50.07
2023-05-14T12:41:30.769Z,50.57
2023-05-14T12:42:30.342Z,51.45
2023-05-14T12:43:30.167Z,52.14
2023-05-14T12:44:30.508Z,51.47
2023-05-14T12:45:30.578Z,49.38
2023-05-14T12:46:30.755Z,48.38
2023-05-14T12:47:31.218Z,48.65
2023-05-14T12:48:30.638Z,49.95
2023-05-14T12:49:30.629Z,49.98
2023-05-14T12:50:30.517Z,54.74
2023-05-14T12:51:30.473Z,54.82
2023-05-14T12:52:37.366Z,50.00
2023-05-14T12:53:32.532Z,48.97
2023-05-14T12:54:30.436Z,51.84
2023-05-14T12:55:30.349Z,51.84
2023-05-14T12:56:29.795Z,48.95
2023-05-14T12:57:30.551Z,49.27
2023-05-14T12:58:29.837Z,49.83
2023-05-14T12:59:30.392Z,49.03
2023-05-14T13:00:30.358Z,48.53
2023-05-14T13:01:29.984Z,48.80
2023-05-14T13:02:30.544Z,48.41
2023-05-14T13:03:30.294Z,50.20
2023-05-14T13:04:30.253Z,49.03
2023-05-14T13:05:30.332Z,46.44
2023-05-14T13:06:30.386Z,50.02
2023-05-14T13:07:30.313Z,46.22
2023-05-14T13:08:29.935Z,46.09
2023-05-14T13:09:30.184Z,45.67
2023-05-14T13:10:30.161Z,46.12
2023-05-14T13:11:29.927Z,47.59
2023-05-14T13:12:29.812Z,46.47
2023-05-14T13:13:30.073Z,45.75
2023-05-14T13:14:30.809Z,46.65
2023-05-14T13:15:29.880Z,45.63
2023-05-14T13:16:31.215Z,45.31
2023-05-14T13:17:29.874Z,44.22
2023-05-14T13:18:29.984Z,43.70
2023-05-14T13:19:30.145Z,43.88
2023-05-14T13:20:29.957Z,44.79
2023-05-14T13:21:30.169Z,45.59
2023-05-14T13:22:30.238Z,45.71
2023-05-14T13:23:29.818Z,44.62
2023-05-14T13:24:30.114Z,44.12
2023-05-14T13:25:30.001Z,45.11
2023-05-14T13:26:29.903Z,45.47
2023-05-14T13:27:30.566Z,43.82
2023-05-14T13:28:30.317Z,42.49
2023-05-14T13:29:30.151Z,41.31
2023-05-14T13:30:29.962Z,40.25
2023-05-14T13:31:30.472Z,41.75
2023-05-14T13:32:30.449Z,42.47
2023-05-14T13:33:30.249Z,43.88
2023-05-14T13:34:30.307Z,43.36
2023-05-14T13:35:30.255Z,41.47
2023-05-14T13:36:30.381Z,40.28
2023-05-14T13:37:30.085Z,40.86
2023-05-14T13:38:30.516Z,40.44
2023-05-14T13:39:30.123Z,38.80
2023-05-14T13:40:29.981Z,38.57
2023-05-14T13:41:30.025Z,37.66
2023-05-14T13:42:30.151Z,37.62
2023-05-14T13:43:29.951Z,37.01
2023-05-14T13:44:31.210Z,36.60
2023-05-14T13:45:29.856Z,34.49
2023-05-14T13:46:30.203Z,35.35
2023-05-14T13:47:30.275Z,35.25
2023-05-14T13:48:29.898Z,34.63
2023-05-14T13:49:30.141Z,34.01
2023-05-14T13:50:30.181Z,35.10
2023-05-14T13:51:30.094Z,34.31
2023-05-14T13:52:29.582Z,35.10
2023-05-14T13:53:29.967Z,35.94
2023-05-14T13:54:29.805Z,36.19
2023-05-14T13:55:29.767Z,38.53
2023-05-14T13:56:29.745Z,39.99
2023-05-14T13:57:29.817Z,39.58
2023-05-14T13:58:29.572Z,40.07
2023-05-14T13:59:30.008Z,41.89
2023-05-14T14:00:29.481Z,41.52
2023-05-14T14:01:29.872Z,41.99
2023-05-14T14:02:30.382Z,42.31
2023-05-14T14:03:32.752Z,42.72
2023-05-14T14:04:29.773Z,41.91
2023-05-14T14:05:30.092Z,42.80
2023-05-14T14:06:29.879Z,41.63
2023-05-14T14:07:29.392Z,41.55
2023-05-14T14:08:29.526Z,44.57
2023-05-14T14:09:30.067Z,43.13
2023-05-14T14:10:29.600Z,42.27
2023-05-14T14:11:29.616Z,41.22
2023-05-14T14:12:29.686Z,39.63
2023-05-14T14:13:29.794Z,38.59
2023-05-14T14:14:29.507Z,36.57
2023-05-14T14:15:29.961Z,36.63